sensor_id;sensor_type;location;lat;lon;timestamp;pressure;altitude;pressure_sealevel;temperature;humidity
58092;BME280;43896;48.178;11.578;2024-02-23T00:01:55;93951.28;;;9.38;66.78
58092;BME280;43896;48.178;11.578;2024-02-23T00:04:21;93891.44;;;9.00;66.95
58092;BME280;43896;48.178;11.578;2024-02-23T00:06:46;93940.06;;;9.03;67.56
58092;BME280;43896;48.178;11.578;2024-02-23T00:09:12;93948.16;;;9.08;67.80
58092;BME280;43896;48.178;11.578;2024-02-23T00:11:40;93901.31;;;8.98;67.43
58092;BME280;43896;48.178;11.578;2024-02-23T00:14:10;93898.84;;;8.90;66.69
58092;BME280;43896;48.178;11.578;2024-02-23T00:16:39;93901.19;;;9.13;66.43
58092;BME280;43896;48.178;11.578;2024-02-23T00:19:05;93969.31;;;9.07;68.18
58092;BME280;43896;48.178;11.578;2024-02-23T00:21:31;93897.94;;;8.63;66.23
58092;BME280;43896;48.178;11.578;2024-02-23T00:23:56;93951.63;;;9.22;66.39
58092;BME280;43896;48.178;11.578;2024-02-23T00:26:22;93914.00;;;8.95;65.98
58092;BME280;43896;48.178;11.578;2024-02-23T00:28:47;93894.91;;;8.66;66.34
58092;BME280;43896;48.178;11.578;2024-02-23T00:31:12;93922.13;;;9.07;65.80
58092;BME280;43896;48.178;11.578;2024-02-23T00:33:38;93892.38;;;8.79;65.23
58092;BME280;43896;48.178;11.578;2024-02-23T00:36:07;93948.63;;;8.77;66.33
58092;BME280;43896;48.178;11.578;2024-02-23T00:38:32;93979.28;;;9.18;65.56
58092;BME280;43896;48.178;11.578;2024-02-23T00:40:58;93930.16;;;8.98;64.39
58092;BME280;43896;48.178;11.578;2024-02-23T00:43:23;93989.59;;;9.33;65.33
58092;BME280;43896;48.178;11.578;2024-02-23T00:45:49;93928.13;;;9.00;63.83
58092;BME280;43896;48.178;11.578;2024-02-23T00:48:14;93949.31;;;8.92;62.71
58092;BME280;43896;48.178;11.578;2024-02-23T00:50:39;93997.59;;;9.11;64.15
58092;BME280;43896;48.178;11.578;2024-02-23T00:53:05;93914.28;;;8.65;62.80
58092;BME280;43896;48.178;11.578;2024-02-23T00:55:30;94004.53;;;9.32;62.80
58092;BME280;43896;48.178;11.578;2024-02-23T00:57:56;93951.09;;;8.92;63.52
58092;BME280;43896;48.178;11.578;2024-02-23T01:00:21;93930.03;;;8.72;63.22
58092;BME280;43896;48.178;11.578;2024-02-23T01:02:46;94017.44;;;9.27;63.41
58092;BME280;43896;48.178;11.578;2024-02-23T01:05:13;93949.47;;;8.84;63.31
58092;BME280;43896;48.178;11.578;2024-02-23T01:07:38;93948.22;;;8.80;63.52
58092;BME280;43896;48.178;11.578;2024-02-23T01:10:04;93984.78;;;8.95;64.22
58092;BME280;43896;48.178;11.578;2024-02-23T01:12:29;93964.34;;;8.77;62.97
58092;BME280;43896;48.178;11.578;2024-02-23T01:14:55;93968.56;;;8.78;62.97
58092;BME280;43896;48.178;11.578;2024-02-23T01:17:20;94017.41;;;9.20;62.01
58092;BME280;43896;48.178;11.578;2024-02-23T01:19:46;94041.53;;;9.03;63.85
58092;BME280;43896;48.178;11.578;2024-02-23T01:22:11;94038.66;;;8.97;63.97
58092;BME280;43896;48.178;11.578;2024-02-23T01:24:37;93975.34;;;8.66;62.78
58092;BME280;43896;48.178;11.578;2024-02-23T01:27:02;93999.78;;;8.73;62.58
58092;BME280;43896;48.178;11.578;2024-02-23T01:29:28;94014.75;;;8.29;64.92
58092;BME280;43896;48.178;11.578;2024-02-23T01:31:53;94010.88;;;8.75;62.74
58092;BME280;43896;48.178;11.578;2024-02-23T01:34:21;94009.50;;;8.79;62.58
58092;BME280;43896;48.178;11.578;2024-02-23T01:36:47;93975.88;;;8.54;62.23
58092;BME280;43896;48.178;11.578;2024-02-23T01:39:12;93985.44;;;8.69;62.52
58092;BME280;43896;48.178;11.578;2024-02-23T01:41:38;93988.53;;;8.79;61.82
58092;BME280;43896;48.178;11.578;2024-02-23T01:44:04;93970.03;;;7.81;64.02
58092;BME280;43896;48.178;11.578;2024-02-23T01:46:30;94053.69;;;8.82;63.14
58092;BME280;43896;48.178;11.578;2024-02-23T01:48:56;93974.63;;;8.22;62.47
58092;BME280;43896;48.178;11.578;2024-02-23T01:51:22;94015.88;;;8.63;61.53
58092;BME280;43896;48.178;11.578;2024-02-23T01:53:47;94001.69;;;8.57;61.57
58092;BME280;43896;48.178;11.578;2024-02-23T01:56:14;94016.81;;;8.55;62.35
58092;BME280;43896;48.178;11.578;2024-02-23T01:58:43;94082.91;;;8.79;62.57
58092;BME280;43896;48.178;11.578;2024-02-23T02:01:10;93985.91;;;8.22;62.34
58092;BME280;43896;48.178;11.578;2024-02-23T02:03:37;93988.31;;;8.24;62.56
58092;BME280;43896;48.178;11.578;2024-02-23T02:06:03;93978.53;;;8.11;62.79
58092;BME280;43896;48.178;11.578;2024-02-23T02:08:29;93971.56;;;8.18;61.93
58092;BME280;43896;48.178;11.578;2024-02-23T02:10:55;94021.28;;;8.40;61.90
58092;BME280;43896;48.178;11.578;2024-02-23T02:13:20;93981.81;;;8.41;61.18
58092;BME280;43896;48.178;11.578;2024-02-23T02:15:46;94079.66;;;8.34;63.81
58092;BME280;43896;48.178;11.578;2024-02-23T02:18:11;94043.06;;;7.97;63.96
58092;BME280;43896;48.178;11.578;2024-02-23T02:20:37;94042.81;;;8.57;62.05
58092;BME280;43896;48.178;11.578;2024-02-23T02:23:06;94012.63;;;8.39;62.06
58092;BME280;43896;48.178;11.578;2024-02-23T02:25:32;94006.69;;;8.52;61.23
58092;BME280;43896;48.178;11.578;2024-02-23T02:27:58;93994.25;;;8.33;61.30
58092;BME280;43896;48.178;11.578;2024-02-23T02:30:23;94048.00;;;8.50;62.60
58092;BME280;43896;48.178;11.578;2024-02-23T02:32:48;94018.38;;;8.50;61.57
58092;BME280;43896;48.178;11.578;2024-02-23T02:35:14;94056.28;;;8.54;61.49
58092;BME280;43896;48.178;11.578;2024-02-23T02:37:39;94052.72;;;8.40;61.72
58092;BME280;43896;48.178;11.578;2024-02-23T02:40:05;94031.50;;;8.06;62.03
58092;BME280;43896;48.178;11.578;2024-02-23T02:42:31;94064.53;;;8.51;61.15
58092;BME280;43896;48.178;11.578;2024-02-23T02:44:56;94090.16;;;8.77;61.42
58092;BME280;43896;48.178;11.578;2024-02-23T02:47:22;94097.03;;;8.85;61.06
58092;BME280;43896;48.178;11.578;2024-02-23T02:49:48;94014.16;;;8.27;62.08
58092;BME280;43896;48.178;11.578;2024-02-23T02:52:14;94029.63;;;8.22;62.39
58092;BME280;43896;48.178;11.578;2024-02-23T02:54:39;94074.94;;;8.44;62.57
58092;BME280;43896;48.178;11.578;2024-02-23T02:57:05;94104.91;;;8.56;62.84
58092;BME280;43896;48.178;11.578;2024-02-23T02:59:34;94059.09;;;8.31;63.28
58092;BME280;43896;48.178;11.578;2024-02-23T03:02:00;94116.84;;;8.87;62.82
58092;BME280;43896;48.178;11.578;2024-02-23T03:04:25;94108.53;;;8.83;62.96
58092;BME280;43896;48.178;11.578;2024-02-23T03:06:50;94050.81;;;8.27;63.26
58092;BME280;43896;48.178;11.578;2024-02-23T03:09:16;94069.38;;;8.11;63.86
58092;BME280;43896;48.178;11.578;2024-02-23T03:11:41;94117.81;;;8.58;63.53
58092;BME280;43896;48.178;11.578;2024-02-23T03:14:07;94028.72;;;8.15;62.90
58092;BME280;43896;48.178;11.578;2024-02-23T03:16:32;94029.97;;;8.19;63.65
58092;BME280;43896;48.178;11.578;2024-02-23T03:18:59;94101.19;;;8.51;63.98
58092;BME280;43896;48.178;11.578;2024-02-23T03:21:24;94120.56;;;8.50;64.00
58092;BME280;43896;48.178;11.578;2024-02-23T03:23:50;94047.84;;;7.94;63.42
58092;BME280;43896;48.178;11.578;2024-02-23T03:26:15;94027.91;;;8.14;62.13
58092;BME280;43896;48.178;11.578;2024-02-23T03:28:42;94061.53;;;8.32;62.76
58092;BME280;43896;48.178;11.578;2024-02-23T03:31:07;94110.56;;;8.60;61.93
58092;BME280;43896;48.178;11.578;2024-02-23T03:33:33;94110.63;;;8.67;61.86
58092;BME280;43896;48.178;11.578;2024-02-23T03:35:58;94106.13;;;8.60;61.05
58092;BME280;43896;48.178;11.578;2024-02-23T03:38:24;94045.75;;;8.25;61.00
58092;BME280;43896;48.178;11.578;2024-02-23T03:40:49;94045.13;;;8.02;61.16
58092;BME280;43896;48.178;11.578;2024-02-23T03:43:14;94110.69;;;8.52;60.79
58092;BME280;43896;48.178;11.578;2024-02-23T03:45:40;94135.44;;;8.49;61.57
58092;BME280;43896;48.178;11.578;2024-02-23T03:48:06;94093.31;;;8.29;62.03
58092;BME280;43896;48.178;11.578;2024-02-23T03:50:31;94124.84;;;8.57;62.06
58092;BME280;43896;48.178;11.578;2024-02-23T03:52:57;94145.94;;;8.71;62.82
58092;BME280;43896;48.178;11.578;2024-02-23T03:55:22;94101.69;;;8.39;63.22
58092;BME280;43896;48.178;11.578;2024-02-23T03:57:48;94055.78;;;8.00;63.31
58092;BME280;43896;48.178;11.578;2024-02-23T04:00:14;94134.44;;;8.29;63.63
58092;BME280;43896;48.178;11.578;2024-02-23T04:02:39;94080.03;;;8.09;63.85
58092;BME280;43896;48.178;11.578;2024-02-23T04:05:06;94115.94;;;8.37;64.69
58092;BME280;43896;48.178;11.578;2024-02-23T04:07:31;94054.63;;;8.03;64.91
58092;BME280;43896;48.178;11.578;2024-02-23T04:09:57;94046.09;;;7.79;66.31
58092;BME280;43896;48.178;11.578;2024-02-23T04:12:22;94061.84;;;7.49;67.76
58092;BME280;43896;48.178;11.578;2024-02-23T04:14:47;94116.06;;;8.07;67.10
58092;BME280;43896;48.178;11.578;2024-02-23T04:17:13;94063.81;;;7.99;65.99
58092;BME280;43896;48.178;11.578;2024-02-23T04:19:40;94134.88;;;8.54;65.91
58092;BME280;43896;48.178;11.578;2024-02-23T04:22:06;94100.22;;;8.37;66.15
58092;BME280;43896;48.178;11.578;2024-02-23T04:24:33;94125.53;;;8.44;65.49
58092;BME280;43896;48.178;11.578;2024-02-23T04:26:59;94053.34;;;7.99;65.07
58092;BME280;43896;48.178;11.578;2024-02-23T04:29:25;94092.69;;;8.05;65.85
58092;BME280;43896;48.178;11.578;2024-02-23T04:31:50;94081.41;;;8.05;65.38
58092;BME280;43896;48.178;11.578;2024-02-23T04:34:15;94073.59;;;7.90;64.79
58092;BME280;43896;48.178;11.578;2024-02-23T04:36:43;94065.47;;;7.85;64.62
58092;BME280;43896;48.178;11.578;2024-02-23T04:39:09;94096.75;;;8.08;64.70
58092;BME280;43896;48.178;11.578;2024-02-23T04:41:34;94076.56;;;7.87;64.85
58092;BME280;43896;48.178;11.578;2024-02-23T04:43:59;94142.31;;;8.14;63.73
58092;BME280;43896;48.178;11.578;2024-02-23T04:46:26;94096.63;;;7.80;63.80
58092;BME280;43896;48.178;11.578;2024-02-23T04:48:52;94074.47;;;7.61;63.32
58092;BME280;43896;48.178;11.578;2024-02-23T04:51:17;94104.03;;;7.76;63.69
58092;BME280;43896;48.178;11.578;2024-02-23T04:53:43;94101.00;;;7.58;62.86
58092;BME280;43896;48.178;11.578;2024-02-23T04:56:09;94079.81;;;7.53;63.77
58092;BME280;43896;48.178;11.578;2024-02-23T04:58:34;94083.16;;;7.46;64.39
58092;BME280;43896;48.178;11.578;2024-02-23T05:01:00;94136.06;;;7.93;64.15
58092;BME280;43896;48.178;11.578;2024-02-23T05:03:25;94125.25;;;7.81;64.46
58092;BME280;43896;48.178;11.578;2024-02-23T05:05:51;94128.09;;;8.01;64.65
58092;BME280;43896;48.178;11.578;2024-02-23T05:08:22;94084.31;;;7.59;65.09
58092;BME280;43896;48.178;11.578;2024-02-23T05:10:49;94055.72;;;7.42;64.98
58092;BME280;43896;48.178;11.578;2024-02-23T05:13:15;94035.66;;;7.43;65.15
58092;BME280;43896;48.178;11.578;2024-02-23T05:15:40;94033.47;;;7.31;65.20
58092;BME280;43896;48.178;11.578;2024-02-23T05:18:06;94050.13;;;7.60;63.91
58092;BME280;43896;48.178;11.578;2024-02-23T05:20:31;94100.22;;;7.94;64.34
58092;BME280;43896;48.178;11.578;2024-02-23T05:22:57;94062.19;;;7.61;63.78
58092;BME280;43896;48.178;11.578;2024-02-23T05:25:22;94074.88;;;6.98;65.99
58092;BME280;43896;48.178;11.578;2024-02-23T05:27:47;94104.41;;;7.73;64.85
58092;BME280;43896;48.178;11.578;2024-02-23T05:30:13;94088.63;;;7.66;64.28
58092;BME280;43896;48.178;11.578;2024-02-23T05:32:39;94119.09;;;7.89;64.01
58092;BME280;43896;48.178;11.578;2024-02-23T05:35:05;94129.94;;;7.71;65.96
58092;BME280;43896;48.178;11.578;2024-02-23T05:37:30;94072.53;;;7.33;65.62
58092;BME280;43896;48.178;11.578;2024-02-23T05:39:55;94133.59;;;7.92;65.20
58092;BME280;43896;48.178;11.578;2024-02-23T05:42:21;94130.81;;;7.93;65.07
58092;BME280;43896;48.178;11.578;2024-02-23T05:44:46;94083.72;;;7.78;64.59
58092;BME280;43896;48.178;11.578;2024-02-23T05:47:14;94083.81;;;7.70;65.55
58092;BME280;43896;48.178;11.578;2024-02-23T05:49:39;94103.19;;;6.94;67.67
58092;BME280;43896;48.178;11.578;2024-02-23T05:52:05;94149.41;;;7.83;65.42
58092;BME280;43896;48.178;11.578;2024-02-23T05:54:30;94065.19;;;6.54;68.08
58092;BME280;43896;48.178;11.578;2024-02-23T05:56:56;94104.63;;;7.57;65.38
58092;BME280;43896;48.178;11.578;2024-02-23T05:59:21;94090.63;;;7.49;65.87
58092;BME280;43896;48.178;11.578;2024-02-23T06:01:46;94166.16;;;8.19;64.80
58092;BME280;43896;48.178;11.578;2024-02-23T06:04:12;94133.00;;;8.11;64.08
58092;BME280;43896;48.178;11.578;2024-02-23T06:06:41;94176.88;;;8.24;64.27
58092;BME280;43896;48.178;11.578;2024-02-23T06:09:06;94142.25;;;8.07;63.82
58092;BME280;43896;48.178;11.578;2024-02-23T06:11:32;94107.88;;;7.44;65.41
58092;BME280;43896;48.178;11.578;2024-02-23T06:13:57;94140.84;;;7.89;64.24
58092;BME280;43896;48.178;11.578;2024-02-23T06:16:23;94142.97;;;8.01;64.44
58092;BME280;43896;48.178;11.578;2024-02-23T06:18:48;94142.06;;;8.08;63.74
58092;BME280;43896;48.178;11.578;2024-02-23T06:21:17;94117.09;;;7.91;63.91
58092;BME280;43896;48.178;11.578;2024-02-23T06:23:45;94140.31;;;8.16;63.86
58092;BME280;43896;48.178;11.578;2024-02-23T06:26:11;94151.97;;;7.47;64.87
58092;BME280;43896;48.178;11.578;2024-02-23T06:28:36;94207.53;;;7.94;64.45
58092;BME280;43896;48.178;11.578;2024-02-23T06:31:05;94212.00;;;8.30;63.81
58092;BME280;43896;48.178;11.578;2024-02-23T06:33:31;94170.25;;;7.32;64.27
58092;BME280;43896;48.178;11.578;2024-02-23T06:35:56;94197.69;;;7.96;64.31
58092;BME280;43896;48.178;11.578;2024-02-23T06:38:22;94135.72;;;7.66;63.17
58092;BME280;43896;48.178;11.578;2024-02-23T06:40:47;94212.13;;;8.06;63.28
58092;BME280;43896;48.178;11.578;2024-02-23T06:43:13;94198.38;;;8.19;62.45
58092;BME280;43896;48.178;11.578;2024-02-23T06:45:38;94189.19;;;8.08;61.45
58092;BME280;43896;48.178;11.578;2024-02-23T06:48:04;94187.03;;;7.97;61.38
58092;BME280;43896;48.178;11.578;2024-02-23T06:50:29;94201.47;;;8.08;61.47
58092;BME280;43896;48.178;11.578;2024-02-23T06:52:58;94205.88;;;8.22;61.09
58092;BME280;43896;48.178;11.578;2024-02-23T06:55:23;94168.59;;;8.05;59.85
58092;BME280;43896;48.178;11.578;2024-02-23T06:57:48;94169.31;;;8.14;59.68
58092;BME280;43896;48.178;11.578;2024-02-23T07:00:14;94084.56;;;7.64;59.19
58092;BME280;43896;48.178;11.578;2024-02-23T07:02:40;94202.38;;;8.15;59.73
58092;BME280;43896;48.178;11.578;2024-02-23T07:05:05;94221.16;;;8.04;60.84
58092;BME280;43896;48.178;11.578;2024-02-23T07:07:34;94148.19;;;7.35;62.22
58092;BME280;43896;48.178;11.578;2024-02-23T07:10:00;94220.44;;;7.95;61.80
58092;BME280;43896;48.178;11.578;2024-02-23T07:12:25;94146.78;;;7.83;60.19
58092;BME280;43896;48.178;11.578;2024-02-23T07:14:57;94169.31;;;7.10;62.59
58092;BME280;43896;48.178;11.578;2024-02-23T07:17:22;94158.19;;;7.61;60.43
58092;BME280;43896;48.178;11.578;2024-02-23T07:19:48;94170.69;;;7.06;61.97
58092;BME280;43896;48.178;11.578;2024-02-23T07:22:16;94159.56;;;7.57;60.33
58092;BME280;43896;48.178;11.578;2024-02-23T07:24:43;94133.03;;;7.30;60.32
58092;BME280;43896;48.178;11.578;2024-02-23T07:27:08;94162.16;;;7.12;61.03
58092;BME280;43896;48.178;11.578;2024-02-23T07:29:34;94182.34;;;7.63;59.79
58092;BME280;43896;48.178;11.578;2024-02-23T07:31:59;94170.84;;;6.66;61.53
58092;BME280;43896;48.178;11.578;2024-02-23T07:34:25;94146.34;;;7.05;59.64
58092;BME280;43896;48.178;11.578;2024-02-23T07:36:53;94171.66;;;7.05;60.76
58092;BME280;43896;48.178;11.578;2024-02-23T07:39:20;94173.25;;;7.29;60.24
58092;BME280;43896;48.178;11.578;2024-02-23T07:41:45;94190.63;;;6.84;61.98
58092;BME280;43896;48.178;11.578;2024-02-23T07:44:11;94210.66;;;6.91;61.93
58092;BME280;43896;48.178;11.578;2024-02-23T07:46:37;94201.66;;;7.47;60.19
58092;BME280;43896;48.178;11.578;2024-02-23T07:49:04;94175.84;;;6.76;62.56
58092;BME280;43896;48.178;11.578;2024-02-23T07:51:31;94177.56;;;7.22;60.21
58092;BME280;43896;48.178;11.578;2024-02-23T07:53:56;94235.47;;;6.95;62.74
58092;BME280;43896;48.178;11.578;2024-02-23T07:56:22;94145.97;;;6.55;60.66
58092;BME280;43896;48.178;11.578;2024-02-23T07:58:47;94190.97;;;7.04;59.75
58092;BME280;43896;48.178;11.578;2024-02-23T08:01:15;94180.91;;;7.75;58.79
58092;BME280;43896;48.178;11.578;2024-02-23T08:03:41;94236.25;;;8.38;58.36
58092;BME280;43896;48.178;11.578;2024-02-23T08:06:07;94205.97;;;8.14;58.90
58092;BME280;43896;48.178;11.578;2024-02-23T08:08:32;94203.16;;;8.16;57.70
58092;BME280;43896;48.178;11.578;2024-02-23T08:11:01;94149.22;;;8.00;57.19
58092;BME280;43896;48.178;11.578;2024-02-23T08:13:26;94216.19;;;8.60;56.66
58092;BME280;43896;48.178;11.578;2024-02-23T08:15:52;94202.13;;;8.32;56.64
58092;BME280;43896;48.178;11.578;2024-02-23T08:18:17;94167.19;;;7.88;57.31
58092;BME280;43896;48.178;11.578;2024-02-23T08:20:42;94175.38;;;7.10;58.97
58092;BME280;43896;48.178;11.578;2024-02-23T08:23:08;94191.19;;;7.32;59.49
58092;BME280;43896;48.178;11.578;2024-02-23T08:25:35;94226.56;;;8.17;58.24
58092;BME280;43896;48.178;11.578;2024-02-23T08:28:01;94174.66;;;6.79;60.53
58092;BME280;43896;48.178;11.578;2024-02-23T08:30:26;94168.22;;;7.72;58.60
58092;BME280;43896;48.178;11.578;2024-02-23T08:32:52;94118.59;;;7.64;57.54
58092;BME280;43896;48.178;11.578;2024-02-23T08:35:17;94116.28;;;7.91;55.90
58092;BME280;43896;48.178;11.578;2024-02-23T08:37:43;94145.09;;;8.27;54.58
58092;BME280;43896;48.178;11.578;2024-02-23T08:40:09;94198.09;;;8.29;55.34
58092;BME280;43896;48.178;11.578;2024-02-23T08:42:34;94190.09;;;8.01;56.18
58092;BME280;43896;48.178;11.578;2024-02-23T08:45:00;94155.31;;;7.70;55.78
58092;BME280;43896;48.178;11.578;2024-02-23T08:47:25;94186.50;;;7.42;57.43
58092;BME280;43896;48.178;11.578;2024-02-23T08:49:57;94217.72;;;8.18;56.34
58092;BME280;43896;48.178;11.578;2024-02-23T08:52:22;94212.53;;;8.25;55.68
58092;BME280;43896;48.178;11.578;2024-02-23T08:54:47;94195.03;;;8.25;55.48
58092;BME280;43896;48.178;11.578;2024-02-23T08:57:13;94199.06;;;8.43;54.49
58092;BME280;43896;48.178;11.578;2024-02-23T08:59:42;94259.84;;;8.53;54.28
58092;BME280;43896;48.178;11.578;2024-02-23T09:02:08;94259.81;;;8.68;54.05
58092;BME280;43896;48.178;11.578;2024-02-23T09:04:34;94241.16;;;8.26;55.20
58092;BME280;43896;48.178;11.578;2024-02-23T09:07:01;94234.41;;;8.32;54.95
58092;BME280;43896;48.178;11.578;2024-02-23T09:09:26;94244.22;;;8.30;54.13
58092;BME280;43896;48.178;11.578;2024-02-23T09:11:51;94237.00;;;8.32;54.45
58092;BME280;43896;48.178;11.578;2024-02-23T09:14:17;94238.19;;;8.30;55.38
58092;BME280;43896;48.178;11.578;2024-02-23T09:16:42;94214.81;;;7.39;55.93
58092;BME280;43896;48.178;11.578;2024-02-23T09:19:08;94279.09;;;8.01;56.23
58092;BME280;43896;48.178;11.578;2024-02-23T09:21:33;94276.13;;;8.04;56.32
58092;BME280;43896;48.178;11.578;2024-02-23T09:23:58;94263.94;;;8.11;55.62
58092;BME280;43896;48.178;11.578;2024-02-23T09:26:24;94307.19;;;8.52;55.46
58092;BME280;43896;48.178;11.578;2024-02-23T09:28:49;94230.91;;;7.95;55.64
58092;BME280;43896;48.178;11.578;2024-02-23T09:31:15;94292.66;;;8.34;56.02
58092;BME280;43896;48.178;11.578;2024-02-23T09:33:40;94261.22;;;8.19;55.77
58092;BME280;43896;48.178;11.578;2024-02-23T09:36:06;94270.72;;;8.20;55.16
58092;BME280;43896;48.178;11.578;2024-02-23T09:38:31;94269.69;;;8.21;54.95
58092;BME280;43896;48.178;11.578;2024-02-23T09:40:58;94276.94;;;8.19;54.53
58092;BME280;43896;48.178;11.578;2024-02-23T09:43:28;94246.63;;;8.10;54.78
58092;BME280;43896;48.178;11.578;2024-02-23T09:45:56;94259.97;;;8.15;54.50
58092;BME280;43896;48.178;11.578;2024-02-23T09:48:22;94310.53;;;8.60;53.96
58092;BME280;43896;48.178;11.578;2024-02-23T09:50:49;94218.88;;;8.01;54.14
58092;BME280;43896;48.178;11.578;2024-02-23T09:53:16;94301.22;;;8.58;54.46
58092;BME280;43896;48.178;11.578;2024-02-23T09:55:43;94273.47;;;8.34;53.57
58092;BME280;43896;48.178;11.578;2024-02-23T09:58:12;94274.41;;;8.11;54.32
58092;BME280;43896;48.178;11.578;2024-02-23T10:00:39;94225.47;;;8.12;54.61
58092;BME280;43896;48.178;11.578;2024-02-23T10:03:05;94281.44;;;8.55;53.70
58092;BME280;43896;48.178;11.578;2024-02-23T10:05:31;94257.84;;;8.40;54.27
58092;BME280;43896;48.178;11.578;2024-02-23T10:07:59;94265.19;;;8.45;55.05
58092;BME280;43896;48.178;11.578;2024-02-23T10:10:32;94250.38;;;7.63;57.50
58092;BME280;43896;48.178;11.578;2024-02-23T10:12:59;94297.03;;;7.59;57.71
58092;BME280;43896;48.178;11.578;2024-02-23T10:15:24;94235.84;;;7.45;56.81
58092;BME280;43896;48.178;11.578;2024-02-23T10:17:50;94274.34;;;7.89;56.17
58092;BME280;43896;48.178;11.578;2024-02-23T10:20:16;94305.38;;;8.37;55.18
58092;BME280;43896;48.178;11.578;2024-02-23T10:22:42;94284.16;;;7.73;55.83
58092;BME280;43896;48.178;11.578;2024-02-23T10:25:09;94274.31;;;8.19;54.47
58092;BME280;43896;48.178;11.578;2024-02-23T10:27:34;94293.53;;;7.29;57.59
58092;BME280;43896;48.178;11.578;2024-02-23T10:29:59;94275.25;;;8.12;55.03
58092;BME280;43896;48.178;11.578;2024-02-23T10:32:29;94256.59;;;8.36;55.00
58092;BME280;43896;48.178;11.578;2024-02-23T10:35:00;94263.00;;;8.63;53.60
58092;BME280;43896;48.178;11.578;2024-02-23T10:37:29;94285.59;;;8.86;50.33
58092;BME280;43896;48.178;11.578;2024-02-23T10:39:57;94271.69;;;8.86;49.73
58092;BME280;43896;48.178;11.578;2024-02-23T10:42:23;94265.88;;;8.39;51.57
58092;BME280;43896;48.178;11.578;2024-02-23T10:44:50;94274.13;;;7.76;53.30
58092;BME280;43896;48.178;11.578;2024-02-23T10:47:16;94280.19;;;8.21;53.17
58092;BME280;43896;48.178;11.578;2024-02-23T10:49:42;94209.28;;;8.23;51.37
58092;BME280;43896;48.178;11.578;2024-02-23T10:52:11;94275.06;;;8.13;53.73
58092;BME280;43896;48.178;11.578;2024-02-23T10:54:38;94203.75;;;8.33;52.21
58092;BME280;43896;48.178;11.578;2024-02-23T10:57:05;94278.19;;;7.94;54.28
58092;BME280;43896;48.178;11.578;2024-02-23T10:59:30;94260.78;;;7.71;56.10
58092;BME280;43896;48.178;11.578;2024-02-23T11:01:56;94249.50;;;7.85;56.67
58092;BME280;43896;48.178;11.578;2024-02-23T11:04:25;94287.13;;;7.69;58.45
58092;BME280;43896;48.178;11.578;2024-02-23T11:06:51;94263.25;;;7.35;58.26
58092;BME280;43896;48.178;11.578;2024-02-23T11:09:21;94245.06;;;7.71;57.31
58092;BME280;43896;48.178;11.578;2024-02-23T11:12:03;94261.31;;;7.13;58.15
58092;BME280;43896;48.178;11.578;2024-02-23T11:14:37;94280.97;;;7.01;58.19
58092;BME280;43896;48.178;11.578;2024-02-23T11:17:03;94230.00;;;6.82;58.61
58092;BME280;43896;48.178;11.578;2024-02-23T11:19:37;94248.88;;;7.30;58.32
58092;BME280;43896;48.178;11.578;2024-02-23T11:22:03;94268.88;;;7.61;57.76
58092;BME280;43896;48.178;11.578;2024-02-23T11:24:30;94238.66;;;6.83;59.12
58092;BME280;43896;48.178;11.578;2024-02-23T11:26:59;94290.63;;;7.01;58.43
58092;BME280;43896;48.178;11.578;2024-02-23T11:29:33;94263.50;;;6.55;59.77
58092;BME280;43896;48.178;11.578;2024-02-23T11:32:00;94289.75;;;7.31;56.40
58092;BME280;43896;48.178;11.578;2024-02-23T11:34:27;94274.16;;;7.91;54.15
58092;BME280;43896;48.178;11.578;2024-02-23T11:36:53;94256.47;;;7.93;53.79
58092;BME280;43896;48.178;11.578;2024-02-23T11:39:19;94265.53;;;6.68;57.19
58092;BME280;43896;48.178;11.578;2024-02-23T11:41:48;94247.88;;;6.47;59.25
58092;BME280;43896;48.178;11.578;2024-02-23T11:44:14;94268.63;;;7.71;55.45
58092;BME280;43896;48.178;11.578;2024-02-23T11:46:42;94275.16;;;8.05;54.33
58092;BME280;43896;48.178;11.578;2024-02-23T11:49:07;94273.72;;;7.11;56.44
58092;BME280;43896;48.178;11.578;2024-02-23T11:51:33;94266.63;;;7.73;54.65
58092;BME280;43896;48.178;11.578;2024-02-23T11:53:58;94174.09;;;7.06;55.00
58092;BME280;43896;48.178;11.578;2024-02-23T11:56:26;94269.06;;;8.19;53.39
58092;BME280;43896;48.178;11.578;2024-02-23T11:58:51;94199.88;;;6.94;54.98
58092;BME280;43896;48.178;11.578;2024-02-23T12:01:16;94267.81;;;6.71;57.15
58092;BME280;43896;48.178;11.578;2024-02-23T12:03:42;94277.94;;;6.43;59.24
58092;BME280;43896;48.178;11.578;2024-02-23T12:06:10;94262.03;;;6.53;58.87
58092;BME280;43896;48.178;11.578;2024-02-23T12:08:36;94241.94;;;6.22;60.31
58092;BME280;43896;48.178;11.578;2024-02-23T12:11:08;94235.50;;;6.01;60.60
58092;BME280;43896;48.178;11.578;2024-02-23T12:13:35;94211.44;;;7.15;56.06
58092;BME280;43896;48.178;11.578;2024-02-23T12:16:01;94259.25;;;7.24;56.70
58092;BME280;43896;48.178;11.578;2024-02-23T12:18:27;94249.16;;;7.36;56.22
58092;BME280;43896;48.178;11.578;2024-02-23T12:21:05;94284.13;;;7.20;55.63
58092;BME280;43896;48.178;11.578;2024-02-23T12:23:44;94237.13;;;6.65;57.42
58092;BME280;43896;48.178;11.578;2024-02-23T12:26:12;94280.31;;;7.45;56.56
58092;BME280;43896;48.178;11.578;2024-02-23T12:28:38;94191.03;;;6.49;57.58
58092;BME280;43896;48.178;11.578;2024-02-23T12:31:05;94210.19;;;6.65;57.08
58092;BME280;43896;48.178;11.578;2024-02-23T12:33:38;94187.97;;;6.46;58.26
58092;BME280;43896;48.178;11.578;2024-02-23T12:36:06;94234.19;;;6.68;57.15
58092;BME280;43896;48.178;11.578;2024-02-23T12:38:32;94262.44;;;6.42;58.40
58092;BME280;43896;48.178;11.578;2024-02-23T12:40:58;94209.03;;;6.13;57.95
58092;BME280;43896;48.178;11.578;2024-02-23T12:43:24;94246.91;;;6.09;59.15
58092;BME280;43896;48.178;11.578;2024-02-23T12:45:50;94246.84;;;6.25;58.10
58092;BME280;43896;48.178;11.578;2024-02-23T12:48:17;94257.97;;;6.19;59.23
58092;BME280;43896;48.178;11.578;2024-02-23T12:50:43;94261.78;;;6.71;58.63
58092;BME280;43896;48.178;11.578;2024-02-23T12:53:12;94267.97;;;7.39;55.56
58092;BME280;43896;48.178;11.578;2024-02-23T12:55:54;94253.13;;;7.31;55.94